PWSweather.com
Personal Weather Stations
Station Observations
ELGHEKO
El Gheko Neighborhood Association, Tucson, AZ 85710

El Gheko Neighborhood AssociationTucson, AZ 85710

Lat: 32.226108, Lon: -110.84443

Elevation: 2598

Station Type: Davis 6153 Vantage Pro 2

http://www.elgheko.us

High Low Average
Temperature 95.6°F35.3°C 66.8°F19.3°C 81.0°F27.2°C
Dew Point 65.1°F18.4°C 49.6°F9.8°C 59.2°F15.1°C
Winds 11.0 mph 17.7 kmh Calm Calm 4.0 mph SSE6.4 kmh SSE
Wind Gusts 21.0 mph33.8 kmh 2.0 mph3.2 kmh 9.0 mph14.5 kmh
Humidity 84% 23% 50%
Pressure 29.88 in1011.9 mb 29.65 in1004.1 mb -
Precipitation 0.13 in3.3 mm - -
Hour Temp Dew Point Humidity Winds Wind Gusts Pressure Precip Precip Rate Daily Precip Total
12:00 AM 81.0°F27.2°C 61.7°F16.5°C 52% 2.0 mph SSW3.2 kmh SSW 5.0 mph8.0 kmh 29.68 in1005.1 mb 0.00 in0.0 mm 0.00 in0.0 mm 0.00 in0.0 mm
12:05 AM 81.0°F27.2°C 61.7°F16.5°C 52% 1.0 mph SSW1.6 kmh SSW 3.0 mph4.8 kmh 29.68 in1005.1 mb 0.00 in0.0 mm 0.00 in0.0 mm 0.00 in0.0 mm
12:10 AM 81.0°F27.2°C 61.7°F16.5°C 52% 1.0 mph SSW1.6 kmh SSW 3.0 mph4.8 kmh 29.68 in1005.1 mb 0.00 in0.0 mm 0.00 in0.0 mm 0.00 in0.0 mm
12:15 AM 80.9°F27.2°C 61.6°F16.4°C 52% Calm Calm 2.0 mph3.2 kmh 29.68 in1005.1 mb 0.00 in0.0 mm 0.00 in0.0 mm 0.00 in0.0 mm
12:20 AM 80.8°F27.1°C 61.5°F16.4°C 52% 2.0 mph SW3.2 kmh SW 7.0 mph11.3 kmh 29.68 in1005.1 mb 0.00 in0.0 mm 0.00 in0.0 mm 0.00 in0.0 mm
12:25 AM 80.8°F27.1°C 61.5°F16.4°C 52% 4.0 mph SSW6.4 kmh SSW 11.0 mph17.7 kmh 29.68 in1005.1 mb 0.00 in0.0 mm 0.00 in0.0 mm 0.00 in0.0 mm
12:30 AM 81.1°F27.3°C 61.3°F16.3°C 51% 5.0 mph SSW8.0 kmh SSW 11.0 mph17.7 kmh 29.68 in1005.1 mb 0.00 in0.0 mm 0.00 in0.0 mm 0.00 in0.0 mm
12:35 AM 81.3°F27.4°C 61.4°F16.3°C 51% 5.0 mph SSW8.0 kmh SSW 9.0 mph14.5 kmh 29.68 in1005.1 mb 0.00 in0.0 mm 0.00 in0.0 mm 0.00 in0.0 mm
12:40 AM 81.5°F27.5°C 61.6°F16.4°C 51% 4.0 mph SSW6.4 kmh SSW 8.0 mph12.9 kmh 29.68 in1005.1 mb 0.00 in0.0 mm 0.00 in0.0 mm 0.00 in0.0 mm
12:45 AM 81.7°F27.6°C 61.8°F16.6°C 51% 4.0 mph SSW6.4 kmh SSW 8.0 mph12.9 kmh 29.69 in1005.4 mb 0.00 in0.0 mm 0.00 in0.0 mm 0.00 in0.0 mm
12:50 AM 81.7°F27.6°C 61.2°F16.2°C 50% 4.0 mph SSW6.4 kmh SSW 8.0 mph12.9 kmh 29.68 in1005.1 mb 0.00 in0.0 mm 0.00 in0.0 mm 0.00 in0.0 mm
12:55 AM 81.8°F27.7°C 61.3°F16.3°C 50% 4.0 mph SSW6.4 kmh SSW 8.0 mph12.9 kmh 29.68 in1005.1 mb 0.00 in0.0 mm 0.00 in0.0 mm 0.00 in0.0 mm
01:00 AM 81.8°F27.7°C 61.3°F16.3°C 50% 4.0 mph SSW6.4 kmh SSW 7.0 mph11.3 kmh 29.68 in1005.1 mb 0.00 in0.0 mm 0.00 in0.0 mm 0.00 in0.0 mm
01:05 AM 81.8°F27.7°C 61.9°F16.6°C 51% 4.0 mph SSW6.4 kmh SSW 8.0 mph12.9 kmh 29.69 in1005.4 mb 0.00 in0.0 mm 0.00 in0.0 mm 0.00 in0.0 mm
01:10 AM 81.7°F27.6°C 61.8°F16.6°C 51% 3.0 mph SSW4.8 kmh SSW 8.0 mph12.9 kmh 29.68 in1005.1 mb 0.00 in0.0 mm 0.00 in0.0 mm 0.00 in0.0 mm
01:15 AM 81.7°F27.6°C 61.8°F16.6°C 51% 3.0 mph SSW4.8 kmh SSW 7.0 mph11.3 kmh 29.68 in1005.1 mb 0.00 in0.0 mm 0.00 in0.0 mm 0.00 in0.0 mm
01:20 AM 81.6°F27.6°C 61.7°F16.5°C 51% 3.0 mph SSW4.8 kmh SSW 5.0 mph8.0 kmh 29.68 in1005.1 mb 0.00 in0.0 mm 0.00 in0.0 mm 0.00 in0.0 mm
01:25 AM 81.5°F27.5°C 61.6°F16.4°C 51% 3.0 mph S4.8 kmh S 5.0 mph8.0 kmh 29.69 in1005.4 mb 0.00 in0.0 mm 0.00 in0.0 mm 0.00 in0.0 mm
01:30 AM 81.4°F27.4°C 61.5°F16.4°C 51% 3.0 mph S4.8 kmh S 5.0 mph8.0 kmh 29.69 in1005.4 mb 0.00 in0.0 mm 0.00 in0.0 mm 0.00 in0.0 mm
01:35 AM 81.4°F27.4°C 62.1°F16.7°C 52% 3.0 mph S4.8 kmh S 4.0 mph6.4 kmh 29.69 in1005.4 mb 0.00 in0.0 mm 0.00 in0.0 mm 0.00 in0.0 mm
01:40 AM 81.3°F27.4°C 62.0°F16.7°C 52% 3.0 mph S4.8 kmh S 7.0 mph11.3 kmh 29.69 in1005.4 mb 0.00 in0.0 mm 0.00 in0.0 mm 0.00 in0.0 mm
01:45 AM 81.3°F27.4°C 62.0°F16.7°C 52% 4.0 mph S6.4 kmh S 8.0 mph12.9 kmh 29.69 in1005.4 mb 0.00 in0.0 mm 0.00 in0.0 mm 0.00 in0.0 mm
01:50 AM 81.2°F27.3°C 61.9°F16.6°C 52% 3.0 mph S4.8 kmh S 8.0 mph12.9 kmh 29.69 in1005.4 mb 0.00 in0.0 mm 0.00 in0.0 mm 0.00 in0.0 mm
01:55 AM 81.1°F27.3°C 61.8°F16.6°C 52% 4.0 mph SSW6.4 kmh SSW 10.0 mph16.1 kmh 29.69 in1005.4 mb 0.00 in0.0 mm 0.00 in0.0 mm 0.00 in0.0 mm
02:00 AM 81.0°F27.2°C 62.3°F16.8°C 53% 4.0 mph SSW6.4 kmh SSW 10.0 mph16.1 kmh 29.69 in1005.4 mb 0.00 in0.0 mm 0.00 in0.0 mm 0.00 in0.0 mm
02:05 AM 80.9°F27.2°C 62.2°F16.8°C 53% 4.0 mph S6.4 kmh S 7.0 mph11.3 kmh 29.69 in1005.4 mb 0.00 in0.0 mm 0.00 in0.0 mm 0.00 in0.0 mm
02:10 AM 80.8°F27.1°C 62.1°F16.7°C 53% 3.0 mph S4.8 kmh S 7.0 mph11.3 kmh 29.69 in1005.4 mb 0.00 in0.0 mm 0.00 in0.0 mm 0.00 in0.0 mm
02:15 AM 80.7°F27.1°C 62.0°F16.7°C 53% 2.0 mph SSW3.2 kmh SSW 4.0 mph6.4 kmh 29.70 in1005.8 mb 0.00 in0.0 mm 0.00 in0.0 mm 0.00 in0.0 mm
02:20 AM 80.6°F27.0°C 62.4°F16.9°C 54% 1.0 mph SSW1.6 kmh SSW 3.0 mph4.8 kmh 29.70 in1005.8 mb 0.00 in0.0 mm 0.00 in0.0 mm 0.00 in0.0 mm
02:25 AM 80.5°F26.9°C 62.3°F16.8°C 54% 2.0 mph SSW3.2 kmh SSW 3.0 mph4.8 kmh 29.70 in1005.8 mb 0.00 in0.0 mm 0.00 in0.0 mm 0.00 in0.0 mm
02:30 AM 80.4°F26.9°C 62.2°F16.8°C 54% 2.0 mph SSW3.2 kmh SSW 3.0 mph4.8 kmh 29.70 in1005.8 mb 0.00 in0.0 mm 0.00 in0.0 mm 0.00 in0.0 mm
02:35 AM 80.2°F26.8°C 62.0°F16.7°C 54% 1.0 mph SSW1.6 kmh SSW 3.0 mph4.8 kmh 29.70 in1005.8 mb 0.00 in0.0 mm 0.00 in0.0 mm 0.00 in0.0 mm
02:40 AM 80.1°F26.7°C 62.5°F16.9°C 55% 1.0 mph SSW1.6 kmh SSW 2.0 mph3.2 kmh 29.70 in1005.8 mb 0.00 in0.0 mm 0.00 in0.0 mm 0.00 in0.0 mm
02:45 AM 80.0°F26.7°C 62.4°F16.9°C 55% 1.0 mph SSW1.6 kmh SSW 2.0 mph3.2 kmh 29.70 in1005.8 mb 0.00 in0.0 mm 0.00 in0.0 mm 0.00 in0.0 mm
02:50 AM 79.8°F26.6°C 62.2°F16.8°C 55% 1.0 mph SSW1.6 kmh SSW 3.0 mph4.8 kmh 29.70 in1005.8 mb 0.00 in0.0 mm 0.00 in0.0 mm 0.00 in0.0 mm
02:55 AM 79.6°F26.4°C 62.5°F16.9°C 56% 1.0 mph SSW1.6 kmh SSW 3.0 mph4.8 kmh 29.70 in1005.8 mb 0.00 in0.0 mm 0.00 in0.0 mm 0.00 in0.0 mm
03:00 AM 79.5°F26.4°C 62.4°F16.9°C 56% 1.0 mph SSW1.6 kmh SSW 3.0 mph4.8 kmh 29.70 in1005.8 mb 0.00 in0.0 mm 0.00 in0.0 mm 0.00 in0.0 mm
03:05 AM 79.4°F26.3°C 62.8°F17.1°C 57% 2.0 mph SSW3.2 kmh SSW 3.0 mph4.8 kmh 29.70 in1005.8 mb 0.00 in0.0 mm 0.00 in0.0 mm 0.00 in0.0 mm
03:10 AM 79.3°F26.3°C 62.7°F17.1°C 57% 2.0 mph SW3.2 kmh SW 6.0 mph9.7 kmh 29.70 in1005.8 mb 0.00 in0.0 mm 0.00 in0.0 mm 0.00 in0.0 mm
03:15 AM 79.2°F26.2°C 63.1°F17.3°C 58% 3.0 mph SW4.8 kmh SW 6.0 mph9.7 kmh 29.70 in1005.8 mb 0.00 in0.0 mm 0.00 in0.0 mm 0.00 in0.0 mm
03:20 AM 79.2°F26.2°C 63.1°F17.3°C 58% 2.0 mph SW3.2 kmh SW 4.0 mph6.4 kmh 29.69 in1005.4 mb 0.00 in0.0 mm 0.00 in0.0 mm 0.00 in0.0 mm
03:25 AM 79.2°F26.2°C 63.6°F17.6°C 59% 2.0 mph SW3.2 kmh SW 6.0 mph9.7 kmh 29.69 in1005.4 mb 0.00 in0.0 mm 0.00 in0.0 mm 0.00 in0.0 mm
03:30 AM 79.1°F26.2°C 63.5°F17.5°C 59% 3.0 mph WSW4.8 kmh WSW 6.0 mph9.7 kmh 29.69 in1005.4 mb 0.00 in0.0 mm 0.00 in0.0 mm 0.00 in0.0 mm
03:35 AM 79.1°F26.2°C 63.5°F17.5°C 59% 2.0 mph WSW3.2 kmh WSW 5.0 mph8.0 kmh 29.70 in1005.8 mb 0.00 in0.0 mm 0.00 in0.0 mm 0.00 in0.0 mm
03:40 AM 79.1°F26.2°C 64.0°F17.8°C 60% 2.0 mph WSW3.2 kmh WSW 4.0 mph6.4 kmh 29.70 in1005.8 mb 0.00 in0.0 mm 0.00 in0.0 mm 0.00 in0.0 mm
03:45 AM 79.0°F26.1°C 64.4°F18.0°C 61% 2.0 mph WSW3.2 kmh WSW 7.0 mph11.3 kmh 29.70 in1005.8 mb 0.00 in0.0 mm 0.00 in0.0 mm 0.00 in0.0 mm
03:50 AM 79.0°F26.1°C 64.4°F18.0°C 61% 3.0 mph WSW4.8 kmh WSW 7.0 mph11.3 kmh 29.70 in1005.8 mb 0.00 in0.0 mm 0.00 in0.0 mm 0.00 in0.0 mm
03:55 AM 78.9°F26.1°C 64.8°F18.2°C 62% 3.0 mph WSW4.8 kmh WSW 5.0 mph8.0 kmh 29.70 in1005.8 mb 0.00 in0.0 mm 0.00 in0.0 mm 0.00 in0.0 mm
04:00 AM 78.9°F26.1°C 64.8°F18.2°C 62% 3.0 mph WSW4.8 kmh WSW 7.0 mph11.3 kmh 29.70 in1005.8 mb 0.00 in0.0 mm 0.00 in0.0 mm 0.00 in0.0 mm
04:05 AM 78.9°F26.1°C 64.8°F18.2°C 62% 4.0 mph WSW6.4 kmh WSW 7.0 mph11.3 kmh 29.70 in1005.8 mb 0.00 in0.0 mm 0.00 in0.0 mm 0.00 in0.0 mm
04:10 AM 78.8°F26.0°C 64.7°F18.2°C 62% 4.0 mph WSW6.4 kmh WSW 8.0 mph12.9 kmh 29.70 in1005.8 mb 0.00 in0.0 mm 0.00 in0.0 mm 0.00 in0.0 mm
04:15 AM 78.8°F26.0°C 64.7°F18.2°C 62% 3.0 mph WSW4.8 kmh WSW 8.0 mph12.9 kmh 29.70 in1005.8 mb 0.00 in0.0 mm 0.00 in0.0 mm 0.00 in0.0 mm
04:20 AM 78.8°F26.0°C 65.1°F18.4°C 63% 3.0 mph SW4.8 kmh SW 8.0 mph12.9 kmh 29.71 in1006.1 mb 0.00 in0.0 mm 0.00 in0.0 mm 0.00 in0.0 mm
04:25 AM 78.7°F25.9°C 65.0°F18.3°C 63% 3.0 mph SW4.8 kmh SW 5.0 mph8.0 kmh 29.71 in1006.1 mb 0.00 in0.0 mm 0.00 in0.0 mm 0.00 in0.0 mm
04:30 AM 78.7°F25.9°C 65.0°F18.3°C 63% 3.0 mph SW4.8 kmh SW 6.0 mph9.7 kmh 29.71 in1006.1 mb 0.00 in0.0 mm 0.00 in0.0 mm 0.00 in0.0 mm
04:35 AM 78.6°F25.9°C 64.9°F18.3°C 63% 3.0 mph SW4.8 kmh SW 7.0 mph11.3 kmh 29.72 in1006.4 mb 0.00 in0.0 mm 0.00 in0.0 mm 0.00 in0.0 mm
04:40 AM 78.5°F25.8°C 64.9°F18.3°C 63% 2.0 mph SW3.2 kmh SW 7.0 mph11.3 kmh 29.72 in1006.4 mb 0.00 in0.0 mm 0.00 in0.0 mm 0.00 in0.0 mm
04:45 AM 78.5°F25.8°C 64.9°F18.3°C 63% 2.0 mph WSW3.2 kmh WSW 6.0 mph9.7 kmh 29.72 in1006.4 mb 0.00 in0.0 mm 0.00 in0.0 mm 0.00 in0.0 mm
04:50 AM 78.4°F25.8°C 64.3°F17.9°C 62% 2.0 mph WSW3.2 kmh WSW 8.0 mph12.9 kmh 29.72 in1006.4 mb 0.00 in0.0 mm 0.00 in0.0 mm 0.00 in0.0 mm
04:55 AM 78.3°F25.7°C 64.2°F17.9°C 62% 2.0 mph WSW3.2 kmh WSW 8.0 mph12.9 kmh 29.72 in1006.4 mb 0.00 in0.0 mm 0.00 in0.0 mm 0.00 in0.0 mm
05:00 AM 78.3°F25.7°C 64.2°F17.9°C 62% 2.0 mph WSW3.2 kmh WSW 4.0 mph6.4 kmh 29.72 in1006.4 mb 0.00 in0.0 mm 0.00 in0.0 mm 0.00 in0.0 mm
05:05 AM 78.2°F25.7°C 64.1°F17.8°C 62% 1.0 mph SW1.6 kmh SW 4.0 mph6.4 kmh 29.73 in1006.8 mb 0.00 in0.0 mm 0.00 in0.0 mm 0.00 in0.0 mm
05:10 AM 78.1°F25.6°C 64.0°F17.8°C 62% Calm Calm 2.0 mph3.2 kmh 29.73 in1006.8 mb 0.00 in0.0 mm 0.00 in0.0 mm 0.00 in0.0 mm
05:15 AM 78.0°F25.6°C 64.4°F18.0°C 63% Calm Calm 2.0 mph3.2 kmh 29.73 in1006.8 mb 0.00 in0.0 mm 0.00 in0.0 mm 0.00 in0.0 mm
05:20 AM 77.9°F25.5°C 64.3°F17.9°C 63% 1.0 mph WSW1.6 kmh WSW 3.0 mph4.8 kmh 29.74 in1007.1 mb 0.00 in0.0 mm 0.00 in0.0 mm 0.00 in0.0 mm
05:25 AM 77.7°F25.4°C 64.1°F17.8°C 63% 1.0 mph WNW1.6 kmh WNW 3.0 mph4.8 kmh 29.74 in1007.1 mb 0.00 in0.0 mm 0.00 in0.0 mm 0.00 in0.0 mm
05:30 AM 77.6°F25.3°C 64.5°F18.1°C 64% 1.0 mph WNW1.6 kmh WNW 3.0 mph4.8 kmh 29.74 in1007.1 mb 0.00 in0.0 mm 0.00 in0.0 mm 0.00 in0.0 mm
05:35 AM 77.4°F25.2°C 64.3°F17.9°C 64% 1.0 mph WNW1.6 kmh WNW 2.0 mph3.2 kmh 29.74 in1007.1 mb 0.00 in0.0 mm 0.00 in0.0 mm 0.00 in0.0 mm
05:40 AM 77.1°F25.1°C 63.5°F17.5°C 63% 2.0 mph N3.2 kmh N 7.0 mph11.3 kmh 29.75 in1007.5 mb 0.00 in0.0 mm 0.00 in0.0 mm 0.00 in0.0 mm
05:45 AM 76.2°F24.6°C 61.8°F16.6°C 61% 4.0 mph ENE6.4 kmh ENE 10.0 mph16.1 kmh 29.75 in1007.5 mb 0.00 in0.0 mm 0.00 in0.0 mm 0.00 in0.0 mm
05:50 AM 75.2°F24.0°C 60.8°F16.0°C 61% 6.0 mph E9.7 kmh E 10.0 mph16.1 kmh 29.75 in1007.5 mb 0.00 in0.0 mm 0.00 in0.0 mm 0.00 in0.0 mm
05:55 AM 74.5°F23.6°C 60.6°F15.9°C 62% 6.0 mph E9.7 kmh E 9.0 mph14.5 kmh 29.75 in1007.5 mb 0.00 in0.0 mm 0.00 in0.0 mm 0.00 in0.0 mm
06:00 AM 74.0°F23.3°C 60.2°F15.7°C 62% 5.0 mph E8.0 kmh E 9.0 mph14.5 kmh 29.75 in1007.5 mb 0.00 in0.0 mm 0.00 in0.0 mm 0.00 in0.0 mm
06:05 AM 73.7°F23.2°C 60.3°F15.7°C 63% 5.0 mph E8.0 kmh E 9.0 mph14.5 kmh 29.76 in1007.8 mb 0.00 in0.0 mm 0.00 in0.0 mm 0.00 in0.0 mm
06:10 AM 73.4°F23.0°C 60.0°F15.6°C 63% 5.0 mph E8.0 kmh E 13.0 mph20.9 kmh 29.76 in1007.8 mb 0.00 in0.0 mm 0.00 in0.0 mm 0.00 in0.0 mm
06:15 AM 73.2°F22.9°C 59.8°F15.4°C 63% 5.0 mph E8.0 kmh E 13.0 mph20.9 kmh 29.76 in1007.8 mb 0.00 in0.0 mm 0.00 in0.0 mm 0.00 in0.0 mm
06:20 AM 73.1°F22.8°C 59.8°F15.4°C 63% 4.0 mph E6.4 kmh E 10.0 mph16.1 kmh 29.76 in1007.8 mb 0.00 in0.0 mm 0.00 in0.0 mm 0.00 in0.0 mm
06:25 AM 73.1°F22.8°C 59.8°F15.4°C 63% 4.0 mph E6.4 kmh E 10.0 mph16.1 kmh 29.77 in1008.1 mb 0.00 in0.0 mm 0.00 in0.0 mm 0.00 in0.0 mm
06:30 AM 72.9°F22.7°C 60.0°F15.6°C 64% 4.0 mph E6.4 kmh E 10.0 mph16.1 kmh 29.77 in1008.1 mb 0.00 in0.0 mm 0.00 in0.0 mm 0.00 in0.0 mm
06:35 AM 72.7°F22.6°C 60.3°F15.7°C 65% 5.0 mph E8.0 kmh E 10.0 mph16.1 kmh 29.77 in1008.1 mb 0.00 in0.0 mm 0.00 in0.0 mm 0.00 in0.0 mm
06:40 AM 72.5°F22.5°C 60.1°F15.6°C 65% 5.0 mph E8.0 kmh E 10.0 mph16.1 kmh 29.77 in1008.1 mb 0.00 in0.0 mm 0.00 in0.0 mm 0.00 in0.0 mm
06:45 AM 72.5°F22.5°C 60.1°F15.6°C 65% 6.0 mph E9.7 kmh E 10.0 mph16.1 kmh 29.77 in1008.1 mb 0.00 in0.0 mm 0.00 in0.0 mm 0.00 in0.0 mm
06:50 AM 72.5°F22.5°C 60.1°F15.6°C 65% 6.0 mph E9.7 kmh E 11.0 mph17.7 kmh 29.78 in1008.5 mb 0.00 in0.0 mm 0.00 in0.0 mm 0.00 in0.0 mm
06:55 AM 72.5°F22.5°C 60.1°F15.6°C 65% 6.0 mph E9.7 kmh E 11.0 mph17.7 kmh 29.79 in1008.8 mb 0.00 in0.0 mm 0.00 in0.0 mm 0.00 in0.0 mm
07:00 AM 72.8°F22.7°C 60.3°F15.7°C 65% 6.0 mph E9.7 kmh E 13.0 mph20.9 kmh 29.79 in1008.8 mb 0.00 in0.0 mm 0.00 in0.0 mm 0.00 in0.0 mm
07:05 AM 73.3°F22.9°C 60.4°F15.8°C 64% 6.0 mph E9.7 kmh E 13.0 mph20.9 kmh 29.79 in1008.8 mb 0.00 in0.0 mm 0.00 in0.0 mm 0.00 in0.0 mm
07:10 AM 73.6°F23.1°C 60.7°F15.9°C 64% 5.0 mph E8.0 kmh E 11.0 mph17.7 kmh 29.79 in1008.8 mb 0.00 in0.0 mm 0.00 in0.0 mm 0.00 in0.0 mm
07:15 AM 73.8°F23.2°C 60.4°F15.8°C 63% 6.0 mph E9.7 kmh E 14.0 mph22.5 kmh 29.79 in1008.8 mb 0.00 in0.0 mm 0.00 in0.0 mm 0.00 in0.0 mm
07:20 AM 74.2°F23.4°C 59.9°F15.5°C 61% 6.0 mph E9.7 kmh E 14.0 mph22.5 kmh 29.79 in1008.8 mb 0.00 in0.0 mm 0.00 in0.0 mm 0.00 in0.0 mm
07:25 AM 74.8°F23.8°C 60.0°F15.6°C 60% 6.0 mph E9.7 kmh E 11.0 mph17.7 kmh 29.79 in1008.8 mb 0.00 in0.0 mm 0.00 in0.0 mm 0.00 in0.0 mm
07:30 AM 75.5°F24.2°C 59.7°F15.4°C 58% 5.0 mph E8.0 kmh E 10.0 mph16.1 kmh 29.79 in1008.8 mb 0.00 in0.0 mm 0.00 in0.0 mm 0.00 in0.0 mm
07:35 AM 76.1°F24.5°C 59.3°F15.2°C 56% 6.0 mph E9.7 kmh E 12.0 mph19.3 kmh 29.79 in1008.8 mb 0.00 in0.0 mm 0.00 in0.0 mm 0.00 in0.0 mm
07:40 AM 76.4°F24.7°C 59.0°F15.0°C 55% 6.0 mph E9.7 kmh E 12.0 mph19.3 kmh 29.79 in1008.8 mb 0.00 in0.0 mm 0.00 in0.0 mm 0.00 in0.0 mm
07:45 AM 76.7°F24.8°C 59.3°F15.2°C 55% 6.0 mph E9.7 kmh E 11.0 mph17.7 kmh 29.79 in1008.8 mb 0.00 in0.0 mm 0.00 in0.0 mm 0.00 in0.0 mm
07:50 AM 77.2°F25.1°C 59.8°F15.4°C 55% 5.0 mph E8.0 kmh E 11.0 mph17.7 kmh 29.80 in1009.1 mb 0.00 in0.0 mm 0.00 in0.0 mm 0.00 in0.0 mm
07:55 AM 77.6°F25.3°C 59.6°F15.3°C 54% 6.0 mph E9.7 kmh E 10.0 mph16.1 kmh 29.80 in1009.1 mb 0.00 in0.0 mm 0.00 in0.0 mm 0.00 in0.0 mm
08:00 AM 78.1°F25.6°C 59.6°F15.3°C 53% 5.0 mph E8.0 kmh E 10.0 mph16.1 kmh 29.80 in1009.1 mb 0.00 in0.0 mm 0.00 in0.0 mm 0.00 in0.0 mm
08:05 AM 78.5°F25.8°C 59.4°F15.2°C 52% 5.0 mph E8.0 kmh E 10.0 mph16.1 kmh 29.80 in1009.1 mb 0.00 in0.0 mm 0.00 in0.0 mm 0.00 in0.0 mm
08:10 AM 78.3°F25.7°C 59.2°F15.1°C 52% 5.0 mph E8.0 kmh E 11.0 mph17.7 kmh 29.80 in1009.1 mb 0.00 in0.0 mm 0.00 in0.0 mm 0.00 in0.0 mm
08:15 AM 78.2°F25.7°C 59.1°F15.1°C 52% 6.0 mph E9.7 kmh E 11.0 mph17.7 kmh 29.80 in1009.1 mb 0.00 in0.0 mm 0.00 in0.0 mm 0.00 in0.0 mm
08:20 AM 79.0°F26.1°C 59.9°F15.5°C 52% 5.0 mph E8.0 kmh E 9.0 mph14.5 kmh 29.80 in1009.1 mb 0.00 in0.0 mm 0.00 in0.0 mm 0.00 in0.0 mm
08:25 AM 79.5°F26.4°C 59.2°F15.1°C 50% 5.0 mph E8.0 kmh E 11.0 mph17.7 kmh 29.80 in1009.1 mb 0.00 in0.0 mm 0.00 in0.0 mm 0.00 in0.0 mm
08:30 AM 79.8°F26.6°C 58.9°F14.9°C 49% 7.0 mph E11.3 kmh E 11.0 mph17.7 kmh 29.80 in1009.1 mb 0.00 in0.0 mm 0.00 in0.0 mm 0.00 in0.0 mm
08:35 AM 80.1°F26.7°C 59.2°F15.1°C 49% 6.0 mph E9.7 kmh E 12.0 mph19.3 kmh 29.80 in1009.1 mb 0.00 in0.0 mm 0.00 in0.0 mm 0.00 in0.0 mm
08:40 AM 80.6°F27.0°C 59.1°F15.1°C 48% 6.0 mph E9.7 kmh E 12.0 mph19.3 kmh 29.80 in1009.1 mb 0.00 in0.0 mm 0.00 in0.0 mm 0.00 in0.0 mm
08:45 AM 81.1°F27.3°C 59.0°F15.0°C 47% 6.0 mph E9.7 kmh E 10.0 mph16.1 kmh 29.81 in1009.5 mb 0.00 in0.0 mm 0.00 in0.0 mm 0.00 in0.0 mm
08:50 AM 81.3°F27.4°C 59.1°F15.1°C 47% 6.0 mph E9.7 kmh E 12.0 mph19.3 kmh 29.81 in1009.5 mb 0.00 in0.0 mm 0.00 in0.0 mm 0.00 in0.0 mm
08:55 AM 81.0°F27.2°C 58.9°F14.9°C 47% 6.0 mph E9.7 kmh E 12.0 mph19.3 kmh 29.81 in1009.5 mb 0.00 in0.0 mm 0.00 in0.0 mm 0.00 in0.0 mm
09:00 AM 81.4°F27.4°C 59.2°F15.1°C 47% 5.0 mph E8.0 kmh E 10.0 mph16.1 kmh 29.81 in1009.5 mb 0.00 in0.0 mm 0.00 in0.0 mm 0.00 in0.0 mm
09:05 AM 81.8°F27.7°C 59.0°F15.0°C 46% 4.0 mph E6.4 kmh E 10.0 mph16.1 kmh 29.81 in1009.5 mb 0.00 in0.0 mm 0.00 in0.0 mm 0.00 in0.0 mm
09:10 AM 81.9°F27.7°C 59.7°F15.4°C 47% 4.0 mph E6.4 kmh E 10.0 mph16.1 kmh 29.81 in1009.5 mb 0.00 in0.0 mm 0.00 in0.0 mm 0.00 in0.0 mm
09:15 AM 81.7°F27.6°C 60.1°F15.6°C 48% 4.0 mph E6.4 kmh E 8.0 mph12.9 kmh 29.81 in1009.5 mb 0.00 in0.0 mm 0.00 in0.0 mm 0.00 in0.0 mm
09:20 AM 81.7°F27.6°C 61.8°F16.6°C 51% 4.0 mph E6.4 kmh E 8.0 mph12.9 kmh 29.81 in1009.5 mb 0.00 in0.0 mm 0.00 in0.0 mm 0.00 in0.0 mm
09:25 AM 82.2°F27.9°C 61.7°F16.5°C 50% 4.0 mph E6.4 kmh E 8.0 mph12.9 kmh 29.81 in1009.5 mb 0.00 in0.0 mm 0.00 in0.0 mm 0.00 in0.0 mm
09:30 AM 82.7°F28.2°C 62.2°F16.8°C 50% 4.0 mph E6.4 kmh E 10.0 mph16.1 kmh 29.81 in1009.5 mb 0.00 in0.0 mm 0.00 in0.0 mm 0.00 in0.0 mm
09:35 AM 83.0°F28.3°C 62.4°F16.9°C 50% 4.0 mph E6.4 kmh E 10.0 mph16.1 kmh 29.80 in1009.1 mb 0.00 in0.0 mm 0.00 in0.0 mm 0.00 in0.0 mm
09:40 AM 83.7°F28.7°C 60.7°F15.9°C 46% 4.0 mph E6.4 kmh E 9.0 mph14.5 kmh 29.80 in1009.1 mb 0.00 in0.0 mm 0.00 in0.0 mm 0.00 in0.0 mm
09:45 AM 83.6°F28.7°C 59.4°F15.2°C 44% 5.0 mph ENE8.0 kmh ENE 11.0 mph17.7 kmh 29.80 in1009.1 mb 0.00 in0.0 mm 0.00 in0.0 mm 0.00 in0.0 mm
09:50 AM 83.6°F28.7°C 58.7°F14.8°C 43% 6.0 mph NE9.7 kmh NE 11.0 mph17.7 kmh 29.80 in1009.1 mb 0.00 in0.0 mm 0.00 in0.0 mm 0.00 in0.0 mm
09:55 AM 83.9°F28.8°C 60.3°F15.7°C 45% 5.0 mph NE8.0 kmh NE 17.0 mph27.4 kmh 29.80 in1009.1 mb 0.00 in0.0 mm 0.00 in0.0 mm 0.00 in0.0 mm
10:00 AM 83.9°F28.8°C 60.9°F16.1°C 46% 5.0 mph NE8.0 kmh NE 17.0 mph27.4 kmh 29.80 in1009.1 mb 0.00 in0.0 mm 0.00 in0.0 mm 0.00 in0.0 mm
10:05 AM 84.6°F29.2°C 60.9°F16.1°C 45% 4.0 mph ENE6.4 kmh ENE 14.0 mph22.5 kmh 29.80 in1009.1 mb 0.00 in0.0 mm 0.00 in0.0 mm 0.00 in0.0 mm
10:10 AM 85.5°F29.7°C 61.1°F16.2°C 44% 3.0 mph SE4.8 kmh SE 8.0 mph12.9 kmh 29.80 in1009.1 mb 0.00 in0.0 mm 0.00 in0.0 mm 0.00 in0.0 mm
10:15 AM 85.9°F29.9°C 59.5°F15.3°C 41% 3.0 mph SE4.8 kmh SE 10.0 mph16.1 kmh 29.79 in1008.8 mb 0.00 in0.0 mm 0.00 in0.0 mm 0.00 in0.0 mm
10:20 AM 85.1°F29.5°C 58.8°F14.9°C 41% 4.0 mph ENE6.4 kmh ENE 10.0 mph16.1 kmh 29.80 in1009.1 mb 0.00 in0.0 mm 0.00 in0.0 mm 0.00 in0.0 mm
10:25 AM 85.0°F29.4°C 59.3°F15.2°C 42% 5.0 mph NE8.0 kmh NE 10.0 mph16.1 kmh 29.79 in1008.8 mb 0.00 in0.0 mm 0.00 in0.0 mm 0.00 in0.0 mm
10:30 AM 85.1°F29.5°C 60.1°F15.6°C 43% 5.0 mph NE8.0 kmh NE 10.0 mph16.1 kmh 29.79 in1008.8 mb 0.00 in0.0 mm 0.00 in0.0 mm 0.00 in0.0 mm
10:35 AM 86.0°F30.0°C 60.2°F15.7°C 42% 4.0 mph ENE6.4 kmh ENE 9.0 mph14.5 kmh 29.79 in1008.8 mb 0.00 in0.0 mm 0.00 in0.0 mm 0.00 in0.0 mm
10:40 AM 86.5°F30.3°C 60.0°F15.6°C 41% 4.0 mph ENE6.4 kmh ENE 10.0 mph16.1 kmh 29.79 in1008.8 mb 0.00 in0.0 mm 0.00 in0.0 mm 0.00 in0.0 mm
10:45 AM 86.5°F30.3°C 60.0°F15.6°C 41% 5.0 mph NE8.0 kmh NE 10.0 mph16.1 kmh 29.79 in1008.8 mb 0.00 in0.0 mm 0.00 in0.0 mm 0.00 in0.0 mm
10:50 AM 86.5°F30.3°C 60.0°F15.6°C 41% 5.0 mph ENE8.0 kmh ENE 9.0 mph14.5 kmh 29.79 in1008.8 mb 0.00 in0.0 mm 0.00 in0.0 mm 0.00 in0.0 mm
10:55 AM 86.5°F30.3°C 59.3°F15.2°C 40% 4.0 mph E6.4 kmh E 9.0 mph14.5 kmh 29.78 in1008.5 mb 0.00 in0.0 mm 0.00 in0.0 mm 0.00 in0.0 mm
11:00 AM 86.8°F30.4°C 59.6°F15.3°C 40% 4.0 mph E6.4 kmh E 9.0 mph14.5 kmh 29.78 in1008.5 mb 0.00 in0.0 mm 0.00 in0.0 mm 0.00 in0.0 mm
11:05 AM 87.1°F30.6°C 59.8°F15.4°C 40% 4.0 mph ENE6.4 kmh ENE 9.0 mph14.5 kmh 29.78 in1008.5 mb 0.00 in0.0 mm 0.00 in0.0 mm 0.00 in0.0 mm
11:10 AM 87.3°F30.7°C 59.3°F15.2°C 39% 4.0 mph E6.4 kmh E 9.0 mph14.5 kmh 29.78 in1008.5 mb 0.00 in0.0 mm 0.00 in0.0 mm 0.00 in0.0 mm
11:15 AM 88.5°F31.4°C 60.4°F15.8°C 39% 3.0 mph SE4.8 kmh SE 8.0 mph12.9 kmh 29.78 in1008.5 mb 0.00 in0.0 mm 0.00 in0.0 mm 0.00 in0.0 mm
11:20 AM 89.8°F32.1°C 59.3°F15.2°C 36% 3.0 mph SSE4.8 kmh SSE 8.0 mph12.9 kmh 29.78 in1008.5 mb 0.00 in0.0 mm 0.00 in0.0 mm 0.00 in0.0 mm
11:25 AM 91.2°F32.9°C 59.7°F15.4°C 35% 3.0 mph SSE4.8 kmh SSE 8.0 mph12.9 kmh 29.78 in1008.5 mb 0.00 in0.0 mm 0.00 in0.0 mm 0.00 in0.0 mm
11:30 AM 91.3°F32.9°C 59.0°F15.0°C 34% 3.0 mph SSE4.8 kmh SSE 7.0 mph11.3 kmh 29.78 in1008.5 mb 0.00 in0.0 mm 0.00 in0.0 mm 0.00 in0.0 mm
11:35 AM 90.8°F32.7°C 59.4°F15.2°C 35% 3.0 mph SE4.8 kmh SE 6.0 mph9.7 kmh 29.78 in1008.5 mb 0.00 in0.0 mm 0.00 in0.0 mm 0.00 in0.0 mm
11:40 AM 89.3°F31.8°C 58.8°F14.9°C 36% 3.0 mph E4.8 kmh E 9.0 mph14.5 kmh 29.77 in1008.1 mb 0.00 in0.0 mm 0.00 in0.0 mm 0.00 in0.0 mm
11:50 AM 88.6°F31.4°C 58.2°F14.6°C 36% 3.0 mph NE4.8 kmh NE 5.0 mph8.0 kmh 29.77 in1008.1 mb 0.00 in0.0 mm 0.00 in0.0 mm 0.00 in0.0 mm
11:55 AM 89.5°F31.9°C 59.0°F15.0°C 36% 3.0 mph SE4.8 kmh SE 6.0 mph9.7 kmh 29.77 in1008.1 mb 0.00 in0.0 mm 0.00 in0.0 mm 0.00 in0.0 mm
12:00 PM 90.4°F32.4°C 58.2°F14.6°C 34% 4.0 mph SE6.4 kmh SE 11.0 mph17.7 kmh 29.77 in1008.1 mb 0.00 in0.0 mm 0.00 in0.0 mm 0.00 in0.0 mm
12:05 PM 91.1°F32.8°C 57.1°F13.9°C 32% 5.0 mph SSE8.0 kmh SSE 11.0 mph17.7 kmh 29.77 in1008.1 mb 0.00 in0.0 mm 0.00 in0.0 mm 0.00 in0.0 mm
12:10 PM 91.8°F33.2°C 56.0°F13.3°C 30% 4.0 mph S6.4 kmh S 9.0 mph14.5 kmh 29.77 in1008.1 mb 0.00 in0.0 mm 0.00 in0.0 mm 0.00 in0.0 mm
12:15 PM 92.3°F33.5°C 56.4°F13.6°C 30% 2.0 mph SSE3.2 kmh SSE 6.0 mph9.7 kmh 29.76 in1007.8 mb 0.00 in0.0 mm 0.00 in0.0 mm 0.00 in0.0 mm
12:20 PM 92.9°F33.8°C 57.8°F14.3°C 31% 4.0 mph S6.4 kmh S 11.0 mph17.7 kmh 29.76 in1007.8 mb 0.00 in0.0 mm 0.00 in0.0 mm 0.00 in0.0 mm
12:25 PM 92.6°F33.7°C 56.6°F13.7°C 30% 5.0 mph SSW8.0 kmh SSW 11.0 mph17.7 kmh 29.76 in1007.8 mb 0.00 in0.0 mm 0.00 in0.0 mm 0.00 in0.0 mm
12:30 PM 92.6°F33.7°C 57.6°F14.2°C 31% 4.0 mph SSW6.4 kmh SSW 10.0 mph16.1 kmh 29.76 in1007.8 mb 0.00 in0.0 mm 0.00 in0.0 mm 0.00 in0.0 mm
12:35 PM 92.8°F33.8°C 56.8°F13.8°C 30% 3.0 mph SSW4.8 kmh SSW 7.0 mph11.3 kmh 29.76 in1007.8 mb 0.00 in0.0 mm 0.00 in0.0 mm 0.00 in0.0 mm
12:40 PM 92.4°F33.6°C 57.4°F14.1°C 31% 3.0 mph SSE4.8 kmh SSE 7.0 mph11.3 kmh 29.76 in1007.8 mb 0.00 in0.0 mm 0.00 in0.0 mm 0.00 in0.0 mm
12:45 PM 92.6°F33.7°C 56.6°F13.7°C 30% 3.0 mph SSE4.8 kmh SSE 12.0 mph19.3 kmh 29.75 in1007.5 mb 0.00 in0.0 mm 0.00 in0.0 mm 0.00 in0.0 mm
12:50 PM 92.9°F33.8°C 56.9°F13.8°C 30% 5.0 mph S8.0 kmh S 12.0 mph19.3 kmh 29.75 in1007.5 mb 0.00 in0.0 mm 0.00 in0.0 mm 0.00 in0.0 mm
12:55 PM 93.1°F33.9°C 57.1°F13.9°C 30% 4.0 mph SSW6.4 kmh SSW 10.0 mph16.1 kmh 29.75 in1007.5 mb 0.00 in0.0 mm 0.00 in0.0 mm 0.00 in0.0 mm
01:00 PM 93.5°F34.2°C 55.5°F13.1°C 28% 4.0 mph SSW6.4 kmh SSW 8.0 mph12.9 kmh 29.75 in1007.5 mb 0.00 in0.0 mm 0.00 in0.0 mm 0.00 in0.0 mm
01:05 PM 93.7°F34.3°C 56.6°F13.7°C 29% 4.0 mph S6.4 kmh S 8.0 mph12.9 kmh 29.74 in1007.1 mb 0.00 in0.0 mm 0.00 in0.0 mm 0.00 in0.0 mm
01:10 PM 93.9°F34.4°C 55.8°F13.2°C 28% 4.0 mph SSE6.4 kmh SSE 10.0 mph16.1 kmh 29.74 in1007.1 mb 0.00 in0.0 mm 0.00 in0.0 mm 0.00 in0.0 mm
01:15 PM 93.7°F34.3°C 56.6°F13.7°C 29% 4.0 mph SE6.4 kmh SE 10.0 mph16.1 kmh 29.74 in1007.1 mb 0.00 in0.0 mm 0.00 in0.0 mm 0.00 in0.0 mm
01:20 PM 94.0°F34.4°C 56.9°F13.8°C 29% 3.0 mph SE4.8 kmh SE 10.0 mph16.1 kmh 29.74 in1007.1 mb 0.00 in0.0 mm 0.00 in0.0 mm 0.00 in0.0 mm
01:25 PM 93.7°F34.3°C 56.6°F13.7°C 29% 4.0 mph SW6.4 kmh SW 10.0 mph16.1 kmh 29.73 in1006.8 mb 0.00 in0.0 mm 0.00 in0.0 mm 0.00 in0.0 mm
01:30 PM 94.2°F34.6°C 56.1°F13.4°C 28% 4.0 mph WSW6.4 kmh WSW 10.0 mph16.1 kmh 29.73 in1006.8 mb 0.00 in0.0 mm 0.00 in0.0 mm 0.00 in0.0 mm
01:35 PM 94.3°F34.6°C 57.2°F14.0°C 29% 4.0 mph SSW6.4 kmh SSW 13.0 mph20.9 kmh 29.73 in1006.8 mb 0.00 in0.0 mm 0.00 in0.0 mm 0.00 in0.0 mm
01:40 PM 94.8°F34.9°C 56.6°F13.7°C 28% 4.0 mph S6.4 kmh S 13.0 mph20.9 kmh 29.73 in1006.8 mb 0.00 in0.0 mm 0.00 in0.0 mm 0.00 in0.0 mm
01:45 PM 95.1°F35.1°C 56.9°F13.8°C 28% 4.0 mph S6.4 kmh S 10.0 mph16.1 kmh 29.72 in1006.4 mb 0.00 in0.0 mm 0.00 in0.0 mm 0.00 in0.0 mm
01:50 PM 95.3°F35.2°C 56.0°F13.3°C 27% 3.0 mph S4.8 kmh S 10.0 mph16.1 kmh 29.72 in1006.4 mb 0.00 in0.0 mm 0.00 in0.0 mm 0.00 in0.0 mm
02:00 PM 94.3°F34.6°C 56.2°F13.4°C 28% 5.0 mph S8.0 kmh S 9.0 mph14.5 kmh 29.71 in1006.1 mb 0.00 in0.0 mm 0.00 in0.0 mm 0.00 in0.0 mm
02:05 PM 94.3°F34.6°C 56.2°F13.4°C 28% 4.0 mph S6.4 kmh S 9.0 mph14.5 kmh 29.71 in1006.1 mb 0.00 in0.0 mm 0.00 in0.0 mm 0.00 in0.0 mm
02:10 PM 95.0°F35.0°C 56.8°F13.8°C 28% 3.0 mph S4.8 kmh S 8.0 mph12.9 kmh 29.70 in1005.8 mb 0.00 in0.0 mm 0.00 in0.0 mm 0.00 in0.0 mm
02:15 PM 95.2°F35.1°C 55.9°F13.3°C 27% 4.0 mph S6.4 kmh S 11.0 mph17.7 kmh 29.70 in1005.8 mb 0.00 in0.0 mm 0.00 in0.0 mm 0.00 in0.0 mm
02:20 PM 94.7°F34.8°C 55.5°F13.1°C 27% 4.0 mph SSW6.4 kmh SSW 11.0 mph17.7 kmh 29.70 in1005.8 mb 0.00 in0.0 mm 0.00 in0.0 mm 0.00 in0.0 mm
02:25 PM 94.3°F34.6°C 56.2°F13.4°C 28% 2.0 mph WSW3.2 kmh WSW 6.0 mph9.7 kmh 29.70 in1005.8 mb 0.00 in0.0 mm 0.00 in0.0 mm 0.00 in0.0 mm
02:30 PM 94.2°F34.6°C 56.1°F13.4°C 28% 2.0 mph WSW3.2 kmh WSW 6.0 mph9.7 kmh 29.70 in1005.8 mb 0.00 in0.0 mm 0.00 in0.0 mm 0.00 in0.0 mm
02:35 PM 94.5°F34.7°C 55.4°F13.0°C 27% 4.0 mph SSW6.4 kmh SSW 11.0 mph17.7 kmh 29.69 in1005.4 mb 0.00 in0.0 mm 0.00 in0.0 mm 0.00 in0.0 mm
02:40 PM 94.8°F34.9°C 54.6°F12.6°C 26% 5.0 mph S8.0 kmh S 11.0 mph17.7 kmh 29.69 in1005.4 mb 0.00 in0.0 mm 0.00 in0.0 mm 0.00 in0.0 mm
02:45 PM 94.7°F34.8°C 54.5°F12.5°C 26% 6.0 mph S9.7 kmh S 11.0 mph17.7 kmh 29.69 in1005.4 mb 0.00 in0.0 mm 0.00 in0.0 mm 0.00 in0.0 mm
02:50 PM 94.5°F34.7°C 54.3°F12.4°C 26% 6.0 mph SW9.7 kmh SW 11.0 mph17.7 kmh 29.68 in1005.1 mb 0.00 in0.0 mm 0.00 in0.0 mm 0.00 in0.0 mm
02:55 PM 94.1°F34.5°C 55.0°F12.8°C 27% 6.0 mph SW9.7 kmh SW 12.0 mph19.3 kmh 29.69 in1005.4 mb 0.00 in0.0 mm 0.00 in0.0 mm 0.00 in0.0 mm
03:00 PM 94.0°F34.4°C 53.9°F12.2°C 26% 5.0 mph SSW8.0 kmh SSW 12.0 mph19.3 kmh 29.68 in1005.1 mb 0.00 in0.0 mm 0.00 in0.0 mm 0.00 in0.0 mm
03:05 PM 94.4°F34.7°C 54.2°F12.3°C 26% 4.0 mph SW6.4 kmh SW 11.0 mph17.7 kmh 29.68 in1005.1 mb 0.00 in0.0 mm 0.00 in0.0 mm 0.00 in0.0 mm
03:10 PM 94.9°F34.9°C 54.7°F12.6°C 26% 3.0 mph SSW4.8 kmh SSW 8.0 mph12.9 kmh 29.68 in1005.1 mb 0.00 in0.0 mm 0.00 in0.0 mm 0.00 in0.0 mm
03:15 PM 94.9°F34.9°C 54.7°F12.6°C 26% 3.0 mph SSW4.8 kmh SSW 7.0 mph11.3 kmh 29.68 in1005.1 mb 0.00 in0.0 mm 0.00 in0.0 mm 0.00 in0.0 mm
03:20 PM 95.3°F35.2°C 55.0°F12.8°C 26% 3.0 mph S4.8 kmh S 6.0 mph9.7 kmh 29.68 in1005.1 mb 0.00 in0.0 mm 0.00 in0.0 mm 0.00 in0.0 mm
03:25 PM 95.6°F35.3°C 56.3°F13.5°C 27% 3.0 mph SSW4.8 kmh SSW 14.0 mph22.5 kmh 29.68 in1005.1 mb 0.00 in0.0 mm 0.00 in0.0 mm 0.00 in0.0 mm
03:30 PM 95.0°F35.0°C 55.8°F13.2°C 27% 6.0 mph SW9.7 kmh SW 14.0 mph22.5 kmh 29.67 in1004.7 mb 0.00 in0.0 mm 0.00 in0.0 mm 0.00 in0.0 mm
03:35 PM 94.6°F34.8°C 55.4°F13.0°C 27% 6.0 mph SW9.7 kmh SW 13.0 mph20.9 kmh 29.67 in1004.7 mb 0.00 in0.0 mm 0.00 in0.0 mm 0.00 in0.0 mm
03:40 PM 94.0°F34.4°C 54.9°F12.7°C 27% 4.0 mph SW6.4 kmh SW 9.0 mph14.5 kmh 29.66 in1004.4 mb 0.00 in0.0 mm 0.00 in0.0 mm 0.00 in0.0 mm
03:45 PM 93.9°F34.4°C 54.8°F12.7°C 27% 2.0 mph NW3.2 kmh NW 7.0 mph11.3 kmh 29.66 in1004.4 mb 0.00 in0.0 mm 0.00 in0.0 mm 0.00 in0.0 mm
03:50 PM 94.1°F34.5°C 51.8°F11.0°C 24% 1.0 mph NE1.6 kmh NE 4.0 mph6.4 kmh 29.66 in1004.4 mb 0.00 in0.0 mm 0.00 in0.0 mm 0.00 in0.0 mm
03:55 PM 94.3°F34.6°C 50.8°F10.4°C 23% 2.0 mph ENE3.2 kmh ENE 6.0 mph9.7 kmh 29.66 in1004.4 mb 0.00 in0.0 mm 0.00 in0.0 mm 0.00 in0.0 mm
04:00 PM 94.0°F34.4°C 50.6°F10.3°C 23% 2.0 mph E3.2 kmh E 7.0 mph11.3 kmh 29.66 in1004.4 mb 0.00 in0.0 mm 0.00 in0.0 mm 0.00 in0.0 mm
04:05 PM 93.2°F34.0°C 51.0°F10.6°C 24% 3.0 mph E4.8 kmh E 7.0 mph11.3 kmh 29.66 in1004.4 mb 0.00 in0.0 mm 0.00 in0.0 mm 0.00 in0.0 mm
04:10 PM 92.9°F33.8°C 49.6°F9.8°C 23% 2.0 mph SE3.2 kmh SE 7.0 mph11.3 kmh 29.66 in1004.4 mb 0.00 in0.0 mm 0.00 in0.0 mm 0.00 in0.0 mm
04:15 PM 92.7°F33.7°C 50.6°F10.3°C 24% 2.0 mph SE3.2 kmh SE 3.0 mph4.8 kmh 29.66 in1004.4 mb 0.00 in0.0 mm 0.00 in0.0 mm 0.00 in0.0 mm
04:20 PM 92.6°F33.7°C 50.5°F10.3°C 24% 1.0 mph SE1.6 kmh SE 3.0 mph4.8 kmh 29.66 in1004.4 mb 0.00 in0.0 mm 0.00 in0.0 mm 0.00 in0.0 mm
04:25 PM 92.0°F33.3°C 52.2°F11.2°C 26% 2.0 mph SE3.2 kmh SE 4.0 mph6.4 kmh 29.65 in1004.1 mb 0.00 in0.0 mm 0.00 in0.0 mm 0.00 in0.0 mm
04:30 PM 91.4°F33.0°C 52.7°F11.5°C 27% 2.0 mph ESE3.2 kmh ESE 4.0 mph6.4 kmh 29.65 in1004.1 mb 0.00 in0.0 mm 0.00 in0.0 mm 0.00 in0.0 mm
04:35 PM 90.9°F32.7°C 53.3°F11.8°C 28% 2.0 mph ESE3.2 kmh ESE 4.0 mph6.4 kmh 29.65 in1004.1 mb 0.00 in0.0 mm 0.00 in0.0 mm 0.00 in0.0 mm
04:40 PM 90.7°F32.6°C 53.1°F11.7°C 28% 2.0 mph E3.2 kmh E 3.0 mph4.8 kmh 29.65 in1004.1 mb 0.00 in0.0 mm 0.00 in0.0 mm 0.00 in0.0 mm
04:45 PM 90.4°F32.4°C 52.9°F11.6°C 28% 2.0 mph ENE3.2 kmh ENE 5.0 mph8.0 kmh 29.65 in1004.1 mb 0.00 in0.0 mm 0.00 in0.0 mm 0.00 in0.0 mm
04:50 PM 90.0°F32.2°C 52.5°F11.4°C 28% 2.0 mph NE3.2 kmh NE 5.0 mph8.0 kmh 29.65 in1004.1 mb 0.00 in0.0 mm 0.00 in0.0 mm 0.00 in0.0 mm
04:55 PM 89.8°F32.1°C 52.3°F11.3°C 28% 2.0 mph NE3.2 kmh NE 5.0 mph8.0 kmh 29.65 in1004.1 mb 0.00 in0.0 mm 0.00 in0.0 mm 0.00 in0.0 mm
05:00 PM 89.6°F32.0°C 53.1°F11.7°C 29% 2.0 mph NE3.2 kmh NE 4.0 mph6.4 kmh 29.65 in1004.1 mb 0.00 in0.0 mm 0.00 in0.0 mm 0.00 in0.0 mm
05:05 PM 89.4°F31.9°C 53.0°F11.7°C 29% 2.0 mph NE3.2 kmh NE 4.0 mph6.4 kmh 29.65 in1004.1 mb 0.00 in0.0 mm 0.00 in0.0 mm 0.00 in0.0 mm
05:10 PM 89.3°F31.8°C 52.9°F11.6°C 29% 2.0 mph NE3.2 kmh NE 3.0 mph4.8 kmh 29.65 in1004.1 mb 0.00 in0.0 mm 0.00 in0.0 mm 0.00 in0.0 mm
05:15 PM 89.1°F31.7°C 52.7°F11.5°C 29% 2.0 mph NE3.2 kmh NE 3.0 mph4.8 kmh 29.65 in1004.1 mb 0.00 in0.0 mm 0.00 in0.0 mm 0.00 in0.0 mm
05:20 PM 88.8°F31.6°C 54.3°F12.4°C 31% 4.0 mph N6.4 kmh N 11.0 mph17.7 kmh 29.65 in1004.1 mb 0.00 in0.0 mm 0.00 in0.0 mm 0.00 in0.0 mm
05:25 PM 88.0°F31.1°C 55.3°F12.9°C 33% 6.0 mph NNW9.7 kmh NNW 13.0 mph20.9 kmh 29.66 in1004.4 mb 0.00 in0.0 mm 0.00 in0.0 mm 0.00 in0.0 mm
05:30 PM 86.9°F30.5°C 56.0°F13.3°C 35% 7.0 mph NW11.3 kmh NW 13.0 mph20.9 kmh 29.66 in1004.4 mb 0.00 in0.0 mm 0.00 in0.0 mm 0.00 in0.0 mm
05:35 PM 85.9°F29.9°C 56.6°F13.7°C 37% 7.0 mph NW11.3 kmh NW 15.0 mph24.1 kmh 29.66 in1004.4 mb 0.00 in0.0 mm 0.00 in0.0 mm 0.00 in0.0 mm
05:40 PM 84.8°F29.3°C 57.1°F13.9°C 39% 6.0 mph NW9.7 kmh NW 15.0 mph24.1 kmh 29.66 in1004.4 mb 0.00 in0.0 mm 0.00 in0.0 mm 0.00 in0.0 mm
05:45 PM 83.8°F28.8°C 58.3°F14.6°C 42% 6.0 mph WNW9.7 kmh WNW 12.0 mph19.3 kmh 29.68 in1005.1 mb 0.00 in0.0 mm 0.00 in0.0 mm 0.00 in0.0 mm
05:50 PM 82.4°F28.0°C 57.7°F14.3°C 43% 7.0 mph W11.3 kmh W 13.0 mph20.9 kmh 29.68 in1005.1 mb 0.00 in0.0 mm 0.00 in0.0 mm 0.00 in0.0 mm
05:55 PM 81.2°F27.3°C 57.8°F14.3°C 45% 8.0 mph W12.9 kmh W 15.0 mph24.1 kmh 29.69 in1005.4 mb 0.00 in0.0 mm 0.00 in0.0 mm 0.00 in0.0 mm
06:00 PM 80.0°F26.7°C 59.1°F15.1°C 49% 9.0 mph W14.5 kmh W 18.0 mph29.0 kmh 29.70 in1005.8 mb 0.00 in0.0 mm 0.00 in0.0 mm 0.00 in0.0 mm
06:05 PM 78.7°F25.9°C 55.6°F13.1°C 45% 10.0 mph W16.1 kmh W 19.0 mph30.6 kmh 29.70 in1005.8 mb 0.00 in0.0 mm 0.00 in0.0 mm 0.00 in0.0 mm
06:10 PM 77.6°F25.3°C 55.2°F12.9°C 46% 11.0 mph W17.7 kmh W 20.0 mph32.2 kmh 29.70 in1005.8 mb 0.00 in0.0 mm 0.00 in0.0 mm 0.00 in0.0 mm
06:15 PM 76.5°F24.7°C 55.9°F13.3°C 49% 11.0 mph W17.7 kmh W 21.0 mph33.8 kmh 29.71 in1006.1 mb 0.00 in0.0 mm 0.00 in0.0 mm 0.00 in0.0 mm
06:20 PM 75.4°F24.1°C 58.1°F14.5°C 55% 10.0 mph W16.1 kmh W 21.0 mph33.8 kmh 29.71 in1006.1 mb 0.00 in0.0 mm 0.00 in0.0 mm 0.00 in0.0 mm
06:25 PM 74.3°F23.5°C 58.6°F14.8°C 58% 7.0 mph W11.3 kmh W 12.0 mph19.3 kmh 29.71 in1006.1 mb 0.01 in0.3 mm 0.12 in3.0 mm 0.01 in0.3 mm
06:30 PM 73.6°F23.1°C 59.8°F15.4°C 62% 5.0 mph WNW8.0 kmh WNW 9.0 mph14.5 kmh 29.69 in1005.4 mb 0.01 in0.3 mm 0.00 in0.0 mm 0.01 in0.3 mm
06:35 PM 72.9°F22.7°C 57.7°F14.3°C 59% 4.0 mph NW6.4 kmh NW 8.0 mph12.9 kmh 29.68 in1005.1 mb 0.03 in0.8 mm 0.24 in6.1 mm 0.03 in0.8 mm
06:40 PM 72.2°F22.3°C 56.6°F13.7°C 58% 4.0 mph SW6.4 kmh SW 11.0 mph17.7 kmh 29.68 in1005.1 mb 0.03 in0.8 mm 0.00 in0.0 mm 0.03 in0.8 mm
06:45 PM 72.2°F22.3°C 58.5°F14.7°C 62% 5.0 mph S8.0 kmh S 11.0 mph17.7 kmh 29.70 in1005.8 mb 0.03 in0.8 mm 0.00 in0.0 mm 0.03 in0.8 mm
06:50 PM 72.2°F22.3°C 59.3°F15.2°C 64% 4.0 mph S6.4 kmh S 9.0 mph14.5 kmh 29.70 in1005.8 mb 0.03 in0.8 mm 0.00 in0.0 mm 0.03 in0.8 mm
06:55 PM 72.4°F22.4°C 60.4°F15.8°C 66% 3.0 mph S4.8 kmh S 9.0 mph14.5 kmh 29.70 in1005.8 mb 0.03 in0.8 mm 0.00 in0.0 mm 0.03 in0.8 mm
07:00 PM 72.7°F22.6°C 58.9°F14.9°C 62% 5.0 mph E8.0 kmh E 15.0 mph24.1 kmh 29.69 in1005.4 mb 0.03 in0.8 mm 0.00 in0.0 mm 0.03 in0.8 mm
07:05 PM 72.9°F22.7°C 58.7°F14.8°C 61% 6.0 mph ESE9.7 kmh ESE 15.0 mph24.1 kmh 29.71 in1006.1 mb 0.03 in0.8 mm 0.00 in0.0 mm 0.03 in0.8 mm
07:10 PM 73.0°F22.8°C 57.8°F14.3°C 59% 3.0 mph SE4.8 kmh SE 8.0 mph12.9 kmh 29.71 in1006.1 mb 0.03 in0.8 mm 0.00 in0.0 mm 0.03 in0.8 mm
07:15 PM 73.1°F22.8°C 57.4°F14.1°C 58% 2.0 mph SE3.2 kmh SE 5.0 mph8.0 kmh 29.71 in1006.1 mb 0.03 in0.8 mm 0.00 in0.0 mm 0.03 in0.8 mm
07:20 PM 73.3°F22.9°C 58.1°F14.5°C 59% 3.0 mph SE4.8 kmh SE 6.0 mph9.7 kmh 29.71 in1006.1 mb 0.03 in0.8 mm 0.00 in0.0 mm 0.03 in0.8 mm
07:25 PM 73.6°F23.1°C 56.4°F13.6°C 55% 4.0 mph SE6.4 kmh SE 9.0 mph14.5 kmh 29.70 in1005.8 mb 0.02 in0.5 mm 0.00 in0.0 mm 0.03 in0.8 mm
07:30 PM 74.0°F23.3°C 56.8°F13.8°C 55% 4.0 mph E6.4 kmh E 9.0 mph14.5 kmh 29.70 in1005.8 mb 0.02 in0.5 mm 0.00 in0.0 mm 0.03 in0.8 mm
07:35 PM 74.1°F23.4°C 56.4°F13.6°C 54% 2.0 mph E3.2 kmh E 8.0 mph12.9 kmh 29.71 in1006.1 mb 0.00 in0.0 mm 0.00 in0.0 mm 0.03 in0.8 mm
07:40 PM 74.1°F23.4°C 56.4°F13.6°C 54% 2.0 mph E3.2 kmh E 8.0 mph12.9 kmh 29.71 in1006.1 mb 0.00 in0.0 mm 0.00 in0.0 mm 0.03 in0.8 mm
07:45 PM 74.1°F23.4°C 56.4°F13.6°C 54% 3.0 mph ESE4.8 kmh ESE 8.0 mph12.9 kmh 29.71 in1006.1 mb 0.00 in0.0 mm 0.00 in0.0 mm 0.03 in0.8 mm
07:50 PM 73.9°F23.3°C 56.7°F13.7°C 55% 2.0 mph SE3.2 kmh SE 5.0 mph8.0 kmh 29.71 in1006.1 mb 0.00 in0.0 mm 0.00 in0.0 mm 0.03 in0.8 mm
07:55 PM 73.7°F23.2°C 56.5°F13.6°C 55% 2.0 mph SE3.2 kmh SE 4.0 mph6.4 kmh 29.71 in1006.1 mb 0.00 in0.0 mm 0.00 in0.0 mm 0.03 in0.8 mm
08:00 PM 73.6°F23.1°C 57.4°F14.1°C 57% 1.0 mph SE1.6 kmh SE 3.0 mph4.8 kmh 29.72 in1006.4 mb 0.00 in0.0 mm 0.00 in0.0 mm 0.03 in0.8 mm
08:05 PM 73.5°F23.1°C 58.8°F14.9°C 60% 3.0 mph SSE4.8 kmh SSE 8.0 mph12.9 kmh 29.72 in1006.4 mb 0.00 in0.0 mm 0.00 in0.0 mm 0.03 in0.8 mm
08:10 PM 73.2°F22.9°C 58.9°F14.9°C 61% 4.0 mph S6.4 kmh S 8.0 mph12.9 kmh 29.73 in1006.8 mb 0.00 in0.0 mm 0.00 in0.0 mm 0.03 in0.8 mm
08:15 PM 72.8°F22.7°C 58.6°F14.8°C 61% 4.0 mph S6.4 kmh S 7.0 mph11.3 kmh 29.73 in1006.8 mb 0.00 in0.0 mm 0.00 in0.0 mm 0.03 in0.8 mm
08:20 PM 72.5°F22.5°C 58.3°F14.6°C 61% 3.0 mph SSE4.8 kmh SSE 7.0 mph11.3 kmh 29.73 in1006.8 mb 0.00 in0.0 mm 0.00 in0.0 mm 0.03 in0.8 mm
08:25 PM 72.5°F22.5°C 57.8°F14.3°C 60% 3.0 mph SSE4.8 kmh SSE 6.0 mph9.7 kmh 29.73 in1006.8 mb 0.00 in0.0 mm 0.00 in0.0 mm 0.03 in0.8 mm
08:30 PM 72.5°F22.5°C 57.8°F14.3°C 60% 4.0 mph SSE6.4 kmh SSE 7.0 mph11.3 kmh 29.74 in1007.1 mb 0.00 in0.0 mm 0.00 in0.0 mm 0.03 in0.8 mm
08:35 PM 72.7°F22.6°C 58.0°F14.4°C 60% 4.0 mph S6.4 kmh S 10.0 mph16.1 kmh 29.74 in1007.1 mb 0.00 in0.0 mm 0.00 in0.0 mm 0.03 in0.8 mm
08:40 PM 72.7°F22.6°C 57.5°F14.2°C 59% 5.0 mph S8.0 kmh S 10.0 mph16.1 kmh 29.75 in1007.5 mb 0.00 in0.0 mm 0.00 in0.0 mm 0.03 in0.8 mm
08:45 PM 72.9°F22.7°C 57.7°F14.3°C 59% 3.0 mph SSW4.8 kmh SSW 7.0 mph11.3 kmh 29.76 in1007.8 mb 0.00 in0.0 mm 0.00 in0.0 mm 0.03 in0.8 mm
08:50 PM 73.0°F22.8°C 56.9°F13.8°C 57% 3.0 mph SSW4.8 kmh SSW 10.0 mph16.1 kmh 29.77 in1008.1 mb 0.00 in0.0 mm 0.00 in0.0 mm 0.03 in0.8 mm
08:55 PM 73.2°F22.9°C 57.5°F14.2°C 58% 4.0 mph SW6.4 kmh SW 11.0 mph17.7 kmh 29.78 in1008.5 mb 0.00 in0.0 mm 0.00 in0.0 mm 0.03 in0.8 mm
09:00 PM 73.2°F22.9°C 58.0°F14.4°C 59% 4.0 mph SW6.4 kmh SW 11.0 mph17.7 kmh 29.78 in1008.5 mb 0.00 in0.0 mm 0.00 in0.0 mm 0.03 in0.8 mm
09:05 PM 73.1°F22.8°C 57.9°F14.4°C 59% 4.0 mph SSW6.4 kmh SSW 8.0 mph12.9 kmh 29.78 in1008.5 mb 0.00 in0.0 mm 0.00 in0.0 mm 0.03 in0.8 mm
09:10 PM 72.9°F22.7°C 57.7°F14.3°C 59% 4.0 mph S6.4 kmh S 7.0 mph11.3 kmh 29.79 in1008.8 mb 0.00 in0.0 mm 0.00 in0.0 mm 0.03 in0.8 mm
09:15 PM 72.8°F22.7°C 58.6°F14.8°C 61% 4.0 mph S6.4 kmh S 10.0 mph16.1 kmh 29.79 in1008.8 mb 0.00 in0.0 mm 0.00 in0.0 mm 0.03 in0.8 mm
09:20 PM 72.6°F22.6°C 58.8°F14.9°C 62% 5.0 mph S8.0 kmh S 10.0 mph16.1 kmh 29.80 in1009.1 mb 0.00 in0.0 mm 0.00 in0.0 mm 0.03 in0.8 mm
09:25 PM 72.3°F22.4°C 59.0°F15.0°C 63% 4.0 mph SSW6.4 kmh SSW 10.0 mph16.1 kmh 29.79 in1008.8 mb 0.00 in0.0 mm 0.00 in0.0 mm 0.03 in0.8 mm
09:30 PM 71.9°F22.2°C 58.2°F14.6°C 62% 4.0 mph S6.4 kmh S 11.0 mph17.7 kmh 29.78 in1008.5 mb 0.00 in0.0 mm 0.00 in0.0 mm 0.03 in0.8 mm
09:35 PM 71.5°F21.9°C 58.2°F14.6°C 63% 4.0 mph SSE6.4 kmh SSE 11.0 mph17.7 kmh 29.78 in1008.5 mb 0.00 in0.0 mm 0.00 in0.0 mm 0.03 in0.8 mm
09:40 PM 71.1°F21.7°C 58.3°F14.6°C 64% 4.0 mph SE6.4 kmh SE 10.0 mph16.1 kmh 29.78 in1008.5 mb 0.00 in0.0 mm 0.00 in0.0 mm 0.03 in0.8 mm
09:45 PM 70.8°F21.6°C 60.1°F15.6°C 69% 4.0 mph E6.4 kmh E 10.0 mph16.1 kmh 29.78 in1008.5 mb 0.00 in0.0 mm 0.00 in0.0 mm 0.03 in0.8 mm
09:50 PM 70.2°F21.2°C 60.0°F15.6°C 70% 4.0 mph NE6.4 kmh NE 9.0 mph14.5 kmh 29.78 in1008.5 mb 0.00 in0.0 mm 0.00 in0.0 mm 0.03 in0.8 mm
09:55 PM 69.8°F21.0°C 59.6°F15.3°C 70% 3.0 mph NE4.8 kmh NE 9.0 mph14.5 kmh 29.80 in1009.1 mb 0.00 in0.0 mm 0.00 in0.0 mm 0.03 in0.8 mm
10:00 PM 69.8°F21.0°C 59.6°F15.3°C 70% 3.0 mph NW4.8 kmh NW 8.0 mph12.9 kmh 29.81 in1009.5 mb 0.00 in0.0 mm 0.00 in0.0 mm 0.03 in0.8 mm
10:05 PM 69.7°F20.9°C 60.3°F15.7°C 72% 2.0 mph WSW3.2 kmh WSW 7.0 mph11.3 kmh 29.82 in1009.8 mb 0.01 in0.3 mm 0.12 in3.0 mm 0.04 in1.0 mm
10:10 PM 69.6°F20.9°C 60.6°F15.9°C 73% 2.0 mph SSW3.2 kmh SSW 6.0 mph9.7 kmh 29.82 in1009.8 mb 0.01 in0.3 mm 0.00 in0.0 mm 0.04 in1.0 mm
10:15 PM 69.5°F20.8°C 61.2°F16.2°C 75% 3.0 mph S4.8 kmh S 8.0 mph12.9 kmh 29.84 in1010.5 mb 0.02 in0.5 mm 0.12 in3.0 mm 0.05 in1.3 mm
10:20 PM 69.2°F20.7°C 61.3°F16.3°C 76% 4.0 mph SW6.4 kmh SW 9.0 mph14.5 kmh 29.85 in1010.8 mb 0.02 in0.5 mm 0.00 in0.0 mm 0.05 in1.3 mm
10:25 PM 68.8°F20.4°C 61.3°F16.3°C 77% 4.0 mph SW6.4 kmh SW 9.0 mph14.5 kmh 29.83 in1010.2 mb 0.04 in1.0 mm 0.24 in6.1 mm 0.07 in1.8 mm
10:30 PM 68.4°F20.2°C 60.5°F15.8°C 76% 3.0 mph S4.8 kmh S 8.0 mph12.9 kmh 29.84 in1010.5 mb 0.05 in1.3 mm 0.12 in3.0 mm 0.08 in2.0 mm
10:35 PM 68.3°F20.2°C 61.2°F16.2°C 78% 4.0 mph S6.4 kmh S 8.0 mph12.9 kmh 29.85 in1010.8 mb 0.06 in1.5 mm 0.12 in3.0 mm 0.09 in2.3 mm
10:40 PM 68.1°F20.1°C 61.0°F16.1°C 78% 3.0 mph SSW4.8 kmh SSW 8.0 mph12.9 kmh 29.85 in1010.8 mb 0.07 in1.8 mm 0.12 in3.0 mm 0.10 in2.5 mm
10:45 PM 68.0°F20.0°C 61.6°F16.4°C 80% 2.0 mph S3.2 kmh S 6.0 mph9.7 kmh 29.85 in1010.8 mb 0.07 in1.8 mm 0.00 in0.0 mm 0.10 in2.5 mm
10:50 PM 67.7°F19.8°C 61.7°F16.5°C 81% 3.0 mph S4.8 kmh S 7.0 mph11.3 kmh 29.85 in1010.8 mb 0.08 in2.0 mm 0.12 in3.0 mm 0.11 in2.8 mm
10:55 PM 67.6°F19.8°C 61.9°F16.6°C 82% 3.0 mph SE4.8 kmh SE 9.0 mph14.5 kmh 29.85 in1010.8 mb 0.08 in2.0 mm 0.00 in0.0 mm 0.11 in2.8 mm
11:00 PM 67.5°F19.7°C 62.2°F16.8°C 83% 3.0 mph SE4.8 kmh SE 9.0 mph14.5 kmh 29.84 in1010.5 mb 0.08 in2.0 mm 0.00 in0.0 mm 0.11 in2.8 mm
11:05 PM 67.5°F19.7°C 62.5°F16.9°C 84% 3.0 mph SE4.8 kmh SE 7.0 mph11.3 kmh 29.84 in1010.5 mb 0.08 in2.0 mm 0.00 in0.0 mm 0.12 in3.0 mm
11:10 PM 67.4°F19.7°C 62.4°F16.9°C 84% 3.0 mph SE4.8 kmh SE 7.0 mph11.3 kmh 29.83 in1010.2 mb 0.08 in2.0 mm 0.00 in0.0 mm 0.12 in3.0 mm
11:15 PM 67.2°F19.6°C 62.2°F16.8°C 84% 3.0 mph SE4.8 kmh SE 7.0 mph11.3 kmh 29.85 in1010.8 mb 0.07 in1.8 mm 0.00 in0.0 mm 0.12 in3.0 mm
11:20 PM 67.1°F19.5°C 61.8°F16.6°C 83% 2.0 mph SE3.2 kmh SE 6.0 mph9.7 kmh 29.86 in1011.2 mb 0.08 in2.0 mm 0.12 in3.0 mm 0.13 in3.3 mm
11:25 PM 67.0°F19.4°C 61.3°F16.3°C 82% 3.0 mph SSE4.8 kmh SSE 8.0 mph12.9 kmh 29.86 in1011.2 mb 0.06 in1.5 mm 0.00 in0.0 mm 0.13 in3.3 mm
11:30 PM 66.9°F19.4°C 61.2°F16.2°C 82% 4.0 mph SSE6.4 kmh SSE 8.0 mph12.9 kmh 29.87 in1011.5 mb 0.05 in1.3 mm 0.00 in0.0 mm 0.13 in3.3 mm
11:35 PM 66.8°F19.3°C 61.1°F16.2°C 82% 5.0 mph SE8.0 kmh SE 15.0 mph24.1 kmh 29.86 in1011.2 mb 0.04 in1.0 mm 0.00 in0.0 mm 0.13 in3.3 mm
11:40 PM 66.8°F19.3°C 61.1°F16.2°C 82% 6.0 mph SE9.7 kmh SE 15.0 mph24.1 kmh 29.87 in1011.5 mb 0.03 in0.8 mm 0.00 in0.0 mm 0.13 in3.3 mm
11:45 PM 66.9°F19.4°C 61.2°F16.2°C 82% 4.0 mph SE6.4 kmh SE 13.0 mph20.9 kmh 29.87 in1011.5 mb 0.03 in0.8 mm 0.00 in0.0 mm 0.13 in3.3 mm
11:50 PM 66.8°F19.3°C 61.1°F16.2°C 82% 3.0 mph SE4.8 kmh SE 9.0 mph14.5 kmh 29.87 in1011.5 mb 0.02 in0.5 mm 0.00 in0.0 mm 0.13 in3.3 mm
11:55 PM 66.8°F19.3°C 61.1°F16.2°C 82% 2.0 mph SE3.2 kmh SE 9.0 mph14.5 kmh 29.88 in1011.9 mb 0.02 in0.5 mm 0.00 in0.0 mm 0.13 in3.3 mm